Covington, Kentucky
Current Conditions -  °F | °C
As of 5:53 PM on Tuesday 21 Oct 2014 (Local Time) from KLUK Reporting Station
Overcast Overcast  
Wind Chill: 54°   Ceiling: 5000
Heat Index: 54°   Visibility: 10mi
Dew Point: 41°   Wind: 9mph
Humidity: 62%   Direction: 340°NNW
Pressure: 30.11"   Gusts: NA
Location:  39.08°N, 84.51°W
Report Text: KLUK 212153Z 34008KT 10SM FEW041 OVC050 12/05 A3011 RMK AO2 SLP195 T01220050
Loading
Personal Weather Stations






























Interactive Weather Map New forecast layout! Learn more

10-Day Weather Forecast

Advertisements
Track Severe Weather on mobile